TED STEVENS ANCHORAGE INTL

PANC (ANC)
Anchorage, Alaska
Towered

Vatsim Metar:
PANC 131053Z 18006KT 10SM CLR 10/09 A3000 RMK AO2 SLP158 T01000089

No ATC Online

Traffic

Inbound:
Ident
Type
Name
ETA
Phase
SNK5595
H/MD11/L
Ira Jaidor Galgo RJTT
17:23 Z
Cruse

Outbound:
Ident
Type
Name
Destination
Phase